sensor_id;sensor_type;location;lat;lon;timestamp;pressure;altitude;pressure_sealevel;temperature;humidity
7026;BME280;3554;42.132;24.786;2023-05-20T00:00:44;101420.09;;;15.98;100.00
7026;BME280;3554;42.132;24.786;2023-05-20T00:03:10;101393.97;;;15.89;100.00
7026;BME280;3554;42.132;24.786;2023-05-20T00:05:37;101383.19;;;15.66;100.00
7026;BME280;3554;42.132;24.786;2023-05-20T00:08:05;101421.88;;;15.67;100.00
7026;BME280;3554;42.132;24.786;2023-05-20T00:10:33;101442.94;;;15.70;100.00
7026;BME280;3554;42.132;24.786;2023-05-20T00:13:00;101485.19;;;15.70;100.00
7026;BME280;3554;42.132;24.786;2023-05-20T00:15:27;101490.63;;;15.64;100.00
7026;BME280;3554;42.132;24.786;2023-05-20T00:17:54;101546.41;;;15.84;100.00
7026;BME280;3554;42.132;24.786;2023-05-20T00:20:21;101539.03;;;15.95;100.00
7026;BME280;3554;42.132;24.786;2023-05-20T00:22:48;101521.63;;;15.88;100.00
7026;BME280;3554;42.132;24.786;2023-05-20T00:25:17;101501.94;;;15.99;100.00
7026;BME280;3554;42.132;24.786;2023-05-20T00:27:43;101459.53;;;16.04;100.00
7026;BME280;3554;42.132;24.786;2023-05-20T00:30:11;101394.13;;;16.12;100.00
7026;BME280;3554;42.132;24.786;2023-05-20T00:32:38;101294.34;;;15.92;100.00
7026;BME280;3554;42.132;24.786;2023-05-20T00:35:05;101261.13;;;16.12;100.00
7026;BME280;3554;42.132;24.786;2023-05-20T00:37:32;101240.00;;;16.12;100.00
7026;BME280;3554;42.132;24.786;2023-05-20T00:39:59;101233.59;;;15.65;100.00
7026;BME280;3554;42.132;24.786;2023-05-20T00:42:28;101254.16;;;15.55;100.00
7026;BME280;3554;42.132;24.786;2023-05-20T00:44:55;101285.84;;;15.55;100.00
7026;BME280;3554;42.132;24.786;2023-05-20T00:47:25;101275.50;;;15.77;100.00
7026;BME280;3554;42.132;24.786;2023-05-20T00:49:54;101234.84;;;15.81;100.00
7026;BME280;3554;42.132;24.786;2023-05-20T00:52:21;101195.16;;;15.84;100.00
7026;BME280;3554;42.132;24.786;2023-05-20T00:54:48;101145.44;;;15.95;100.00
7026;BME280;3554;42.132;24.786;2023-05-20T00:57:16;101087.47;;;15.92;100.00
7026;BME280;3554;42.132;24.786;2023-05-20T00:59:46;101077.69;;;15.94;100.00
7026;BME280;3554;42.132;24.786;2023-05-20T01:02:13;101040.25;;;15.83;100.00
7026;BME280;3554;42.132;24.786;2023-05-20T01:04:40;101039.22;;;15.87;100.00
7026;BME280;3554;42.132;24.786;2023-05-20T01:07:12;101024.19;;;15.64;100.00
7026;BME280;3554;42.132;24.786;2023-05-20T01:09:39;101056.44;;;15.20;100.00
7026;BME280;3554;42.132;24.786;2023-05-20T01:12:11;101260.84;;;15.36;100.00
7026;BME280;3554;42.132;24.786;2023-05-20T01:14:43;101389.38;;;15.34;100.00
7026;BME280;3554;42.132;24.786;2023-05-20T01:17:14;101497.63;;;15.31;100.00
7026;BME280;3554;42.132;24.786;2023-05-20T01:19:43;101602.53;;;15.23;100.00
7026;BME280;3554;42.132;24.786;2023-05-20T01:22:11;101665.84;;;15.23;100.00
7026;BME280;3554;42.132;24.786;2023-05-20T01:24:41;101765.25;;;15.23;100.00
7026;BME280;3554;42.132;24.786;2023-05-20T01:27:08;101829.47;;;15.23;100.00
7026;BME280;3554;42.132;24.786;2023-05-20T01:29:36;101860.34;;;15.18;100.00
7026;BME280;3554;42.132;24.786;2023-05-20T01:32:06;101873.38;;;15.26;100.00
7026;BME280;3554;42.132;24.786;2023-05-20T01:34:34;101895.56;;;15.16;100.00
7026;BME280;3554;42.132;24.786;2023-05-20T01:37:03;101916.75;;;15.13;100.00
7026;BME280;3554;42.132;24.786;2023-05-20T01:39:33;101952.50;;;15.29;100.00
7026;BME280;3554;42.132;24.786;2023-05-20T01:42:05;101970.06;;;15.30;100.00
7026;BME280;3554;42.132;24.786;2023-05-20T01:44:32;101969.41;;;15.17;100.00
7026;BME280;3554;42.132;24.786;2023-05-20T01:46:59;101973.00;;;15.15;100.00
7026;BME280;3554;42.132;24.786;2023-05-20T01:49:26;101975.50;;;15.21;100.00
7026;BME280;3554;42.132;24.786;2023-05-20T01:51:53;101960.75;;;15.11;100.00
7026;BME280;3554;42.132;24.786;2023-05-20T01:54:20;101963.38;;;15.11;100.00
7026;BME280;3554;42.132;24.786;2023-05-20T01:56:48;101939.78;;;15.03;100.00
7026;BME280;3554;42.132;24.786;2023-05-20T01:59:17;101919.50;;;15.05;100.00
7026;BME280;3554;42.132;24.786;2023-05-20T02:01:43;101875.66;;;14.99;100.00
7026;BME280;3554;42.132;24.786;2023-05-20T02:04:11;101794.91;;;14.92;100.00
7026;BME280;3554;42.132;24.786;2023-05-20T02:06:38;101717.72;;;14.84;100.00
7026;BME280;3554;42.132;24.786;2023-05-20T02:09:04;101504.50;;;14.68;100.00
7026;BME280;3554;42.132;24.786;2023-05-20T02:11:31;101327.81;;;14.36;100.00
7026;BME280;3554;42.132;24.786;2023-05-20T02:13:58;101295.41;;;14.66;100.00
7026;BME280;3554;42.132;24.786;2023-05-20T02:16:26;101163.31;;;14.46;100.00
7026;BME280;3554;42.132;24.786;2023-05-20T02:18:53;100928.94;;;14.41;100.00
7026;BME280;3554;42.132;24.786;2023-05-20T02:21:22;100617.19;;;14.16;100.00
7026;BME280;3554;42.132;24.786;2023-05-20T02:23:49;100361.53;;;14.44;100.00
7026;BME280;3554;42.132;24.786;2023-05-20T02:26:16;99989.91;;;14.48;100.00
7026;BME280;3554;42.132;24.786;2023-05-20T02:28:43;99814.75;;;14.57;100.00
7026;BME280;3554;42.132;24.786;2023-05-20T02:31:11;99700.06;;;14.50;100.00
7026;BME280;3554;42.132;24.786;2023-05-20T02:33:39;99711.94;;;14.41;100.00
7026;BME280;3554;42.132;24.786;2023-05-20T02:36:06;99589.06;;;14.40;100.00
7026;BME280;3554;42.132;24.786;2023-05-20T02:38:33;99500.38;;;14.41;100.00
7026;BME280;3554;42.132;24.786;2023-05-20T02:41:00;99440.22;;;14.33;100.00
7026;BME280;3554;42.132;24.786;2023-05-20T02:43:28;99367.41;;;14.17;100.00
7026;BME280;3554;42.132;24.786;2023-05-20T02:45:55;99279.34;;;14.22;100.00
7026;BME280;3554;42.132;24.786;2023-05-20T02:48:22;99181.59;;;14.28;100.00
7026;BME280;3554;42.132;24.786;2023-05-20T02:50:50;99001.91;;;14.39;100.00
7026;BME280;3554;42.132;24.786;2023-05-20T02:53:17;98811.22;;;14.43;100.00
7026;BME280;3554;42.132;24.786;2023-05-20T02:55:45;98723.56;;;14.41;100.00
7026;BME280;3554;42.132;24.786;2023-05-20T02:58:12;98663.94;;;14.27;100.00
7026;BME280;3554;42.132;24.786;2023-05-20T03:00:39;98642.03;;;14.27;100.00
7026;BME280;3554;42.132;24.786;2023-05-20T03:03:06;98628.72;;;14.16;100.00
7026;BME280;3554;42.132;24.786;2023-05-20T03:05:34;98590.63;;;14.21;100.00
7026;BME280;3554;42.132;24.786;2023-05-20T03:08:06;98537.75;;;14.24;100.00
7026;BME280;3554;42.132;24.786;2023-05-20T03:10:34;98506.94;;;14.26;100.00
7026;BME280;3554;42.132;24.786;2023-05-20T03:13:02;98501.38;;;14.31;100.00
7026;BME280;3554;42.132;24.786;2023-05-20T03:15:32;98504.50;;;14.23;100.00
7026;BME280;3554;42.132;24.786;2023-05-20T03:17:59;98418.19;;;13.90;100.00
7026;BME280;3554;42.132;24.786;2023-05-20T03:20:26;98480.91;;;14.22;100.00
7026;BME280;3554;42.132;24.786;2023-05-20T03:22:54;98462.19;;;14.39;100.00
7026;BME280;3554;42.132;24.786;2023-05-20T03:25:23;98466.94;;;14.34;100.00
7026;BME280;3554;42.132;24.786;2023-05-20T03:27:50;98575.06;;;14.68;100.00
7026;BME280;3554;42.132;24.786;2023-05-20T03:30:16;98638.91;;;14.59;100.00
7026;BME280;3554;42.132;24.786;2023-05-20T03:32:44;98633.13;;;14.42;100.00
7026;BME280;3554;42.132;24.786;2023-05-20T03:35:10;98577.91;;;14.53;100.00
7026;BME280;3554;42.132;24.786;2023-05-20T03:37:37;98614.88;;;14.89;100.00
7026;BME280;3554;42.132;24.786;2023-05-20T03:40:07;98677.63;;;15.33;100.00
7026;BME280;3554;42.132;24.786;2023-05-20T03:42:36;98729.56;;;15.45;100.00
7026;BME280;3554;42.132;24.786;2023-05-20T03:45:04;98904.19;;;15.75;100.00
7026;BME280;3554;42.132;24.786;2023-05-20T03:47:31;99027.09;;;15.38;100.00
7026;BME280;3554;42.132;24.786;2023-05-20T03:49:58;99029.69;;;15.26;100.00
7026;BME280;3554;42.132;24.786;2023-05-20T03:52:25;98966.31;;;15.41;100.00
7026;BME280;3554;42.132;24.786;2023-05-20T03:54:52;99019.84;;;15.81;100.00
7026;BME280;3554;42.132;24.786;2023-05-20T03:57:19;99086.97;;;16.41;100.00
7026;BME280;3554;42.132;24.786;2023-05-20T03:59:47;99316.88;;;16.80;100.00
7026;BME280;3554;42.132;24.786;2023-05-20T04:02:14;99431.88;;;17.27;100.00
7026;BME280;3554;42.132;24.786;2023-05-20T04:04:40;99926.41;;;17.75;100.00
7026;BME280;3554;42.132;24.786;2023-05-20T04:07:07;100673.78;;;18.00;100.00
7026;BME280;3554;42.132;24.786;2023-05-20T04:09:34;101326.19;;;18.09;100.00
7026;BME280;3554;42.132;24.786;2023-05-20T04:12:01;101330.41;;;18.15;100.00
7026;BME280;3554;42.132;24.786;2023-05-20T04:14:28;101022.47;;;18.24;100.00
7026;BME280;3554;42.132;24.786;2023-05-20T04:16:57;100750.09;;;18.10;100.00
7026;BME280;3554;42.132;24.786;2023-05-20T04:19:23;100588.66;;;18.23;100.00
7026;BME280;3554;42.132;24.786;2023-05-20T04:21:52;100459.63;;;18.24;100.00
7026;BME280;3554;42.132;24.786;2023-05-20T04:24:19;100334.09;;;18.25;100.00
7026;BME280;3554;42.132;24.786;2023-05-20T04:26:50;100258.41;;;18.50;100.00
7026;BME280;3554;42.132;24.786;2023-05-20T04:29:17;100179.28;;;18.72;100.00
7026;BME280;3554;42.132;24.786;2023-05-20T04:31:44;100125.47;;;18.56;100.00
7026;BME280;3554;42.132;24.786;2023-05-20T04:34:12;100077.63;;;18.58;100.00
7026;BME280;3554;42.132;24.786;2023-05-20T04:36:43;100026.19;;;18.60;100.00
7026;BME280;3554;42.132;24.786;2023-05-20T04:39:10;99989.13;;;18.73;100.00
7026;BME280;3554;42.132;24.786;2023-05-20T04:41:38;99966.50;;;18.81;100.00
7026;BME280;3554;42.132;24.786;2023-05-20T04:44:04;99928.59;;;19.06;100.00
7026;BME280;3554;42.132;24.786;2023-05-20T04:46:31;99905.81;;;19.29;100.00
7026;BME280;3554;42.132;24.786;2023-05-20T04:48:58;99885.13;;;19.34;100.00
7026;BME280;3554;42.132;24.786;2023-05-20T04:51:26;99859.56;;;19.33;100.00
7026;BME280;3554;42.132;24.786;2023-05-20T04:53:54;99837.88;;;19.51;100.00
7026;BME280;3554;42.132;24.786;2023-05-20T04:56:21;99812.28;;;19.63;100.00
7026;BME280;3554;42.132;24.786;2023-05-20T04:58:47;99794.91;;;19.95;100.00
7026;BME280;3554;42.132;24.786;2023-05-20T05:01:14;99786.31;;;20.15;100.00
7026;BME280;3554;42.132;24.786;2023-05-20T05:03:41;99778.44;;;20.50;100.00
7026;BME280;3554;42.132;24.786;2023-05-20T05:06:08;99738.19;;;20.07;100.00
7026;BME280;3554;42.132;24.786;2023-05-20T05:08:36;99732.16;;;20.52;100.00
7026;BME280;3554;42.132;24.786;2023-05-20T05:11:04;99717.50;;;20.47;100.00
7026;BME280;3554;42.132;24.786;2023-05-20T05:13:31;99702.72;;;20.43;100.00
7026;BME280;3554;42.132;24.786;2023-05-20T05:15:58;99689.97;;;20.59;100.00
7026;BME280;3554;42.132;24.786;2023-05-20T05:18:25;99685.34;;;20.50;100.00
7026;BME280;3554;42.132;24.786;2023-05-20T05:20:58;99674.38;;;20.65;100.00
7026;BME280;3554;42.132;24.786;2023-05-20T05:23:25;99670.56;;;21.02;100.00
7026;BME280;3554;42.132;24.786;2023-05-20T05:25:53;99658.47;;;20.98;100.00
7026;BME280;3554;42.132;24.786;2023-05-20T05:28:20;99651.81;;;21.15;100.00
7026;BME280;3554;42.132;24.786;2023-05-20T05:30:46;99652.69;;;21.38;100.00
7026;BME280;3554;42.132;24.786;2023-05-20T05:33:13;99642.47;;;21.54;100.00
7026;BME280;3554;42.132;24.786;2023-05-20T05:35:40;99632.28;;;21.70;100.00
7026;BME280;3554;42.132;24.786;2023-05-20T05:38:07;99641.69;;;21.85;100.00
7026;BME280;3554;42.132;24.786;2023-05-20T05:40:35;99633.19;;;21.91;100.00
7026;BME280;3554;42.132;24.786;2023-05-20T05:43:03;99613.78;;;21.57;100.00
7026;BME280;3554;42.132;24.786;2023-05-20T05:45:29;99610.28;;;21.46;100.00
7026;BME280;3554;42.132;24.786;2023-05-20T05:47:56;99604.25;;;21.75;100.00
7026;BME280;3554;42.132;24.786;2023-05-20T05:50:23;99597.97;;;21.76;100.00
7026;BME280;3554;42.132;24.786;2023-05-20T05:52:50;99594.56;;;22.06;100.00
7026;BME280;3554;42.132;24.786;2023-05-20T05:55:16;99594.44;;;22.49;100.00
7026;BME280;3554;42.132;24.786;2023-05-20T05:57:43;99589.69;;;22.52;100.00
7026;BME280;3554;42.132;24.786;2023-05-20T06:00:12;99587.47;;;21.95;100.00
7026;BME280;3554;42.132;24.786;2023-05-20T06:02:39;99592.97;;;21.72;100.00
7026;BME280;3554;42.132;24.786;2023-05-20T06:05:07;99586.97;;;21.70;100.00
7026;BME280;3554;42.132;24.786;2023-05-20T06:07:34;99588.38;;;21.74;100.00
7026;BME280;3554;42.132;24.786;2023-05-20T06:10:01;99594.63;;;21.95;100.00
7026;BME280;3554;42.132;24.786;2023-05-20T06:12:28;99589.28;;;22.26;100.00
7026;BME280;3554;42.132;24.786;2023-05-20T06:14:54;99569.50;;;21.77;100.00
7026;BME280;3554;42.132;24.786;2023-05-20T06:17:23;99578.41;;;22.39;100.00
7026;BME280;3554;42.132;24.786;2023-05-20T06:19:49;99574.63;;;22.62;100.00
7026;BME280;3554;42.132;24.786;2023-05-20T06:22:16;99566.94;;;22.69;100.00
7026;BME280;3554;42.132;24.786;2023-05-20T06:24:43;99572.25;;;22.99;100.00
7026;BME280;3554;42.132;24.786;2023-05-20T06:27:10;99573.41;;;23.06;100.00
7026;BME280;3554;42.132;24.786;2023-05-20T06:29:36;99578.00;;;23.34;100.00
7026;BME280;3554;42.132;24.786;2023-05-20T06:32:04;99578.88;;;23.44;100.00
7026;BME280;3554;42.132;24.786;2023-05-20T06:34:32;99576.91;;;23.46;100.00
7026;BME280;3554;42.132;24.786;2023-05-20T06:36:59;99574.50;;;23.62;100.00
7026;BME280;3554;42.132;24.786;2023-05-20T06:39:26;99580.28;;;23.58;100.00
7026;BME280;3554;42.132;24.786;2023-05-20T06:41:53;99578.19;;;23.80;100.00
7026;BME280;3554;42.132;24.786;2023-05-20T06:44:20;99568.22;;;23.73;100.00
7026;BME280;3554;42.132;24.786;2023-05-20T06:46:46;99572.72;;;23.91;100.00
7026;BME280;3554;42.132;24.786;2023-05-20T06:49:13;99568.47;;;23.98;100.00
7026;BME280;3554;42.132;24.786;2023-05-20T06:51:41;99570.75;;;24.22;100.00
7026;BME280;3554;42.132;24.786;2023-05-20T06:54:08;99575.00;;;24.15;100.00
7026;BME280;3554;42.132;24.786;2023-05-20T06:56:35;99570.19;;;24.18;100.00
7026;BME280;3554;42.132;24.786;2023-05-20T06:59:02;99575.13;;;24.13;100.00
7026;BME280;3554;42.132;24.786;2023-05-20T07:01:28;99573.38;;;24.41;100.00
7026;BME280;3554;42.132;24.786;2023-05-20T07:03:55;99572.09;;;24.55;100.00
7026;BME280;3554;42.132;24.786;2023-05-20T07:06:22;99571.31;;;24.25;100.00
7026;BME280;3554;42.132;24.786;2023-05-20T07:08:50;99571.00;;;23.71;100.00
7026;BME280;3554;42.132;24.786;2023-05-20T07:11:17;99579.47;;;24.05;100.00
7026;BME280;3554;42.132;24.786;2023-05-20T07:13:44;99581.28;;;23.66;100.00
7026;BME280;3554;42.132;24.786;2023-05-20T07:16:10;99577.59;;;23.48;100.00
7026;BME280;3554;42.132;24.786;2023-05-20T07:18:37;99570.34;;;23.10;100.00
7026;BME280;3554;42.132;24.786;2023-05-20T07:21:04;99578.00;;;23.34;100.00
7026;BME280;3554;42.132;24.786;2023-05-20T07:23:31;99554.75;;;23.25;100.00
7026;BME280;3554;42.132;24.786;2023-05-20T07:25:59;99565.97;;;23.78;100.00
7026;BME280;3554;42.132;24.786;2023-05-20T07:28:25;99568.94;;;24.22;100.00
7026;BME280;3554;42.132;24.786;2023-05-20T07:30:52;99577.09;;;24.11;100.00
7026;BME280;3554;42.132;24.786;2023-05-20T07:33:20;99576.38;;;23.81;100.00
7026;BME280;3554;42.132;24.786;2023-05-20T07:35:47;99557.25;;;24.04;100.00
7026;BME280;3554;42.132;24.786;2023-05-20T07:38:14;99592.84;;;24.24;100.00
7026;BME280;3554;42.132;24.786;2023-05-20T07:40:41;99583.53;;;24.37;100.00
7026;BME280;3554;42.132;24.786;2023-05-20T07:43:09;99579.44;;;24.33;100.00
7026;BME280;3554;42.132;24.786;2023-05-20T07:45:35;99568.19;;;24.30;100.00
7026;BME280;3554;42.132;24.786;2023-05-20T07:48:03;99579.53;;;24.70;100.00
7026;BME280;3554;42.132;24.786;2023-05-20T07:50:29;99587.25;;;24.08;100.00
7026;BME280;3554;42.132;24.786;2023-05-20T07:52:56;99585.81;;;24.23;98.92
7026;BME280;3554;42.132;24.786;2023-05-20T07:55:23;99579.84;;;24.48;96.00
7026;BME280;3554;42.132;24.786;2023-05-20T07:57:50;99586.16;;;24.57;93.87
7026;BME280;3554;42.132;24.786;2023-05-20T08:00:19;99563.84;;;24.85;94.31
7026;BME280;3554;42.132;24.786;2023-05-20T08:02:45;99586.63;;;24.98;89.32
7026;BME280;3554;42.132;24.786;2023-05-20T08:05:12;99575.38;;;24.85;87.72
7026;BME280;3554;42.132;24.786;2023-05-20T08:07:39;99581.50;;;24.68;84.53
7026;BME280;3554;42.132;24.786;2023-05-20T08:10:07;99582.88;;;24.82;86.21
7026;BME280;3554;42.132;24.786;2023-05-20T08:12:34;99585.78;;;24.42;88.79
7026;BME280;3554;42.132;24.786;2023-05-20T08:15:01;99583.00;;;24.15;91.06
7026;BME280;3554;42.132;24.786;2023-05-20T08:17:29;99578.06;;;24.10;93.05
7026;BME280;3554;42.132;24.786;2023-05-20T08:19:56;99581.16;;;24.25;92.84
7026;BME280;3554;42.132;24.786;2023-05-20T08:22:22;99581.13;;;24.44;91.43
7026;BME280;3554;42.132;24.786;2023-05-20T08:24:49;99574.56;;;24.66;91.99
7026;BME280;3554;42.132;24.786;2023-05-20T08:27:16;99576.13;;;25.05;95.28
7026;BME280;3554;42.132;24.786;2023-05-20T08:29:43;99577.00;;;25.05;92.86
7026;BME280;3554;42.132;24.786;2023-05-20T08:32:10;99579.47;;;25.16;93.92
7026;BME280;3554;42.132;24.786;2023-05-20T08:34:38;99581.13;;;25.27;92.68
7026;BME280;3554;42.132;24.786;2023-05-20T08:37:05;99567.22;;;25.41;90.59
7026;BME280;3554;42.132;24.786;2023-05-20T08:39:31;99578.50;;;25.80;89.92
7026;BME280;3554;42.132;24.786;2023-05-20T08:41:58;99574.84;;;25.81;91.32
7026;BME280;3554;42.132;24.786;2023-05-20T08:44:27;99581.84;;;25.74;92.05
7026;BME280;3554;42.132;24.786;2023-05-20T08:46:55;99570.16;;;26.00;94.85
7026;BME280;3554;42.132;24.786;2023-05-20T08:49:22;99572.31;;;25.97;89.07
7026;BME280;3554;42.132;24.786;2023-05-20T08:51:50;99569.28;;;26.09;82.86
7026;BME280;3554;42.132;24.786;2023-05-20T08:54:18;99559.59;;;25.81;86.19
7026;BME280;3554;42.132;24.786;2023-05-20T08:56:48;99574.84;;;25.63;86.08
7026;BME280;3554;42.132;24.786;2023-05-20T08:59:16;99578.53;;;25.08;88.33
7026;BME280;3554;42.132;24.786;2023-05-20T09:01:43;99574.47;;;25.31;84.47
7026;BME280;3554;42.132;24.786;2023-05-20T09:04:10;99565.03;;;25.54;91.33
7026;BME280;3554;42.132;24.786;2023-05-20T09:06:44;99573.59;;;25.40;88.58
7026;BME280;3554;42.132;24.786;2023-05-20T09:09:12;99562.16;;;24.84;89.72
7026;BME280;3554;42.132;24.786;2023-05-20T09:11:40;99557.97;;;24.62;92.19
7026;BME280;3554;42.132;24.786;2023-05-20T09:14:07;99567.38;;;24.20;98.42
7026;BME280;3554;42.132;24.786;2023-05-20T09:16:34;99575.53;;;24.18;100.00
7026;BME280;3554;42.132;24.786;2023-05-20T09:19:01;99567.63;;;23.98;100.00
7026;BME280;3554;42.132;24.786;2023-05-20T09:21:31;99572.97;;;23.98;100.00
7026;BME280;3554;42.132;24.786;2023-05-20T09:24:00;99569.59;;;24.44;100.00
7026;BME280;3554;42.132;24.786;2023-05-20T09:26:29;99565.34;;;24.41;100.00
7026;BME280;3554;42.132;24.786;2023-05-20T09:28:55;99564.69;;;24.29;100.00
7026;BME280;3554;42.132;24.786;2023-05-20T09:31:25;99563.94;;;24.37;100.00
7026;BME280;3554;42.132;24.786;2023-05-20T09:33:53;99564.00;;;23.99;100.00
7026;BME280;3554;42.132;24.786;2023-05-20T09:36:21;99550.50;;;24.10;100.00
7026;BME280;3554;42.132;24.786;2023-05-20T09:38:51;99569.34;;;24.18;100.00
7026;BME280;3554;42.132;24.786;2023-05-20T09:41:19;99567.78;;;24.25;100.00
7026;BME280;3554;42.132;24.786;2023-05-20T09:43:49;99558.16;;;24.51;100.00
7026;BME280;3554;42.132;24.786;2023-05-20T09:46:18;99511.97;;;24.39;100.00
7026;BME280;3554;42.132;24.786;2023-05-20T09:48:45;99531.34;;;24.61;100.00
7026;BME280;3554;42.132;24.786;2023-05-20T09:51:13;99539.41;;;24.51;100.00
7026;BME280;3554;42.132;24.786;2023-05-20T09:53:41;99538.09;;;24.65;100.00
7026;BME280;3554;42.132;24.786;2023-05-20T09:56:08;99543.88;;;24.70;100.00
7026;BME280;3554;42.132;24.786;2023-05-20T09:58:35;99536.44;;;24.54;100.00
7026;BME280;3554;42.132;24.786;2023-05-20T10:01:04;99528.50;;;24.72;100.00
7026;BME280;3554;42.132;24.786;2023-05-20T10:03:31;99536.28;;;24.65;100.00
7026;BME280;3554;42.132;24.786;2023-05-20T10:06:35;99524.72;;;24.55;100.00
7026;BME280;3554;42.132;24.786;2023-05-20T10:09:20;99520.47;;;24.62;100.00
7026;BME280;3554;42.132;24.786;2023-05-20T10:11:55;99511.19;;;24.20;100.00
7026;BME280;3554;42.132;24.786;2023-05-20T10:14:37;99524.00;;;24.16;100.00
7026;BME280;3554;42.132;24.786;2023-05-20T10:17:14;99523.16;;;24.25;100.00
7026;BME280;3554;42.132;24.786;2023-05-20T10:19:42;99531.81;;;24.47;100.00
7026;BME280;3554;42.132;24.786;2023-05-20T10:22:10;99526.47;;;24.47;100.00
7026;BME280;3554;42.132;24.786;2023-05-20T10:24:39;99537.25;;;24.74;100.00
7026;BME280;3554;42.132;24.786;2023-05-20T10:27:08;99535.19;;;24.49;100.00
7026;BME280;3554;42.132;24.786;2023-05-20T10:29:42;99547.22;;;23.97;89.63
7026;BME280;3554;42.132;24.786;2023-05-20T10:32:21;99545.25;;;23.61;91.72
7026;BME280;3554;42.132;24.786;2023-05-20T10:34:50;99522.88;;;23.71;90.86
7026;BME280;3554;42.132;24.786;2023-05-20T10:37:23;99520.34;;;23.70;92.03
7026;BME280;3554;42.132;24.786;2023-05-20T10:39:51;99523.59;;;23.83;92.90
7026;BME280;3554;42.132;24.786;2023-05-20T10:42:28;99476.75;;;23.60;93.30
7026;BME280;3554;42.132;24.786;2023-05-20T10:44:55;99520.94;;;23.92;95.20
7026;BME280;3554;42.132;24.786;2023-05-20T10:47:23;99515.28;;;23.86;99.85
7026;BME280;3554;42.132;24.786;2023-05-20T10:49:50;99530.50;;;23.76;100.00
7026;BME280;3554;42.132;24.786;2023-05-20T10:52:17;99530.78;;;23.54;100.00
7026;BME280;3554;42.132;24.786;2023-05-20T10:54:46;99529.75;;;23.35;100.00
7026;BME280;3554;42.132;24.786;2023-05-20T10:57:13;99537.28;;;23.11;100.00
7026;BME280;3554;42.132;24.786;2023-05-20T10:59:40;99547.53;;;23.16;100.00
7026;BME280;3554;42.132;24.786;2023-05-20T11:02:09;99547.88;;;22.83;100.00
7026;BME280;3554;42.132;24.786;2023-05-20T11:04:38;99538.84;;;22.74;100.00
7026;BME280;3554;42.132;24.786;2023-05-20T11:07:05;99533.56;;;22.93;100.00
7026;BME280;3554;42.132;24.786;2023-05-20T11:09:32;99533.72;;;23.31;100.00
7026;BME280;3554;42.132;24.786;2023-05-20T11:11:59;99545.19;;;23.22;100.00
7026;BME280;3554;42.132;24.786;2023-05-20T11:14:27;99533.97;;;23.28;100.00
7026;BME280;3554;42.132;24.786;2023-05-20T11:16:55;99528.88;;;23.25;100.00
7026;BME280;3554;42.132;24.786;2023-05-20T11:19:22;99521.88;;;23.24;100.00
7026;BME280;3554;42.132;24.786;2023-05-20T11:21:50;99541.31;;;23.55;100.00
7026;BME280;3554;42.132;24.786;2023-05-20T11:24:22;99519.38;;;23.42;100.00
7026;BME280;3554;42.132;24.786;2023-05-20T11:26:50;99520.22;;;23.71;100.00
7026;BME280;3554;42.132;24.786;2023-05-20T11:29:18;99520.78;;;23.94;100.00
7026;BME280;3554;42.132;24.786;2023-05-20T11:31:47;99517.13;;;24.04;100.00
7026;BME280;3554;42.132;24.786;2023-05-20T11:34:14;99515.13;;;23.97;100.00
7026;BME280;3554;42.132;24.786;2023-05-20T11:36:40;99505.59;;;23.75;100.00
7026;BME280;3554;42.132;24.786;2023-05-20T11:39:10;99509.53;;;24.00;100.00
7026;BME280;3554;42.132;24.786;2023-05-20T11:41:37;99502.69;;;24.34;100.00
7026;BME280;3554;42.132;24.786;2023-05-20T11:44:09;99513.16;;;24.27;95.00
7026;BME280;3554;42.132;24.786;2023-05-20T11:46:40;99512.94;;;24.48;93.32
7026;BME280;3554;42.132;24.786;2023-05-20T11:49:07;99514.09;;;24.46;95.13
7026;BME280;3554;42.132;24.786;2023-05-20T11:51:34;99493.00;;;24.33;96.88
7026;BME280;3554;42.132;24.786;2023-05-20T11:54:05;99497.78;;;24.29;94.10
7026;BME280;3554;42.132;24.786;2023-05-20T11:56:34;99507.56;;;23.92;95.76
7026;BME280;3554;42.132;24.786;2023-05-20T11:59:02;99501.78;;;23.87;96.23
7026;BME280;3554;42.132;24.786;2023-05-20T12:01:30;99505.56;;;23.94;95.72
7026;BME280;3554;42.132;24.786;2023-05-20T12:04:02;99506.72;;;23.73;92.42
7026;BME280;3554;42.132;24.786;2023-05-20T12:06:29;99496.03;;;23.44;96.21
7026;BME280;3554;42.132;24.786;2023-05-20T12:08:57;99471.41;;;23.69;94.02
7026;BME280;3554;42.132;24.786;2023-05-20T12:11:25;99504.19;;;23.90;91.40
7026;BME280;3554;42.132;24.786;2023-05-20T12:13:53;99501.50;;;24.00;91.84
7026;BME280;3554;42.132;24.786;2023-05-20T12:16:20;99494.13;;;24.21;87.91
7026;BME280;3554;42.132;24.786;2023-05-20T12:18:46;99500.50;;;23.82;89.42
7026;BME280;3554;42.132;24.786;2023-05-20T12:21:13;99493.94;;;23.76;92.32
7026;BME280;3554;42.132;24.786;2023-05-20T12:23:40;99483.47;;;24.02;91.49
7026;BME280;3554;42.132;24.786;2023-05-20T12:26:07;99486.97;;;24.21;92.49
7026;BME280;3554;42.132;24.786;2023-05-20T12:28:33;99486.97;;;24.21;91.72
7026;BME280;3554;42.132;24.786;2023-05-20T12:31:02;99491.69;;;24.37;94.02
7026;BME280;3554;42.132;24.786;2023-05-20T12:33:28;99486.06;;;24.40;93.74
7026;BME280;3554;42.132;24.786;2023-05-20T12:35:55;99481.91;;;24.55;92.54
7026;BME280;3554;42.132;24.786;2023-05-20T12:38:22;99482.19;;;24.52;95.72
7026;BME280;3554;42.132;24.786;2023-05-20T12:40:49;99478.03;;;24.40;97.11
7026;BME280;3554;42.132;24.786;2023-05-20T12:43:15;99473.09;;;24.45;94.94
7026;BME280;3554;42.132;24.786;2023-05-20T12:45:42;99464.84;;;24.19;95.28
7026;BME280;3554;42.132;24.786;2023-05-20T12:48:10;99460.72;;;24.34;93.48
7026;BME280;3554;42.132;24.786;2023-05-20T12:50:37;99463.25;;;24.36;92.64
7026;BME280;3554;42.132;24.786;2023-05-20T12:53:04;99453.88;;;24.22;94.71
7026;BME280;3554;42.132;24.786;2023-05-20T12:55:30;99452.47;;;24.18;93.22
7026;BME280;3554;42.132;24.786;2023-05-20T12:57:57;99443.34;;;24.11;94.06
7026;BME280;3554;42.132;24.786;2023-05-20T13:00:24;99437.84;;;24.13;96.83
7026;BME280;3554;42.132;24.786;2023-05-20T13:02:51;99439.53;;;24.14;94.71